createdAt,value
2018-06-18T00:00:35.108Z,3.30
2018-06-18T00:03:02.655Z,3.43
2018-06-18T00:05:30.187Z,3.60
2018-06-18T00:07:57.727Z,3.20
2018-06-18T00:10:25.276Z,3.77
2018-06-18T00:12:52.811Z,2.80
2018-06-18T00:15:20.416Z,3.20
2018-06-18T00:17:48.942Z,2.60
2018-06-18T00:20:16.453Z,2.97
2018-06-18T00:22:44.113Z,3.33
2018-06-18T00:25:11.666Z,3.80
2018-06-18T00:27:39.194Z,2.90
2018-06-18T00:30:06.706Z,3.50
2018-06-18T00:32:34.256Z,3.30
2018-06-18T00:35:01.775Z,3.30
2018-06-18T00:37:29.339Z,3.07
2018-06-18T00:39:56.933Z,3.80
2018-06-18T00:42:24.540Z,3.33
2018-06-18T00:44:52.117Z,3.10
2018-06-18T00:47:19.675Z,3.30
2018-06-18T00:49:47.719Z,3.50
2018-06-18T00:52:15.232Z,2.60
2018-06-18T00:54:42.809Z,2.80
2018-06-18T00:57:10.367Z,2.83
2018-06-18T00:59:37.897Z,3.23
2018-06-18T01:02:05.870Z,3.20
2018-06-18T01:04:33.581Z,2.80
2018-06-18T01:07:01.147Z,3.00
2018-06-18T01:09:29.086Z,3.30
2018-06-18T01:11:56.704Z,2.60
2018-06-18T01:14:24.273Z,2.97
2018-06-18T01:16:51.791Z,3.13
2018-06-18T01:19:19.291Z,3.10
2018-06-18T01:21:46.942Z,2.53
2018-06-18T01:24:50.432Z,2.87
2018-06-18T01:27:19.706Z,2.80
2018-06-18T01:29:46.985Z,2.70
2018-06-18T01:32:14.345Z,3.00
2018-06-18T01:34:41.914Z,2.67
2018-06-18T01:37:09.281Z,2.77
2018-06-18T01:39:36.575Z,2.47
2018-06-18T01:42:04.207Z,2.90
2018-06-18T01:44:31.486Z,2.63
2018-06-18T01:46:58.812Z,2.53
2018-06-18T01:49:26.164Z,2.93
2018-06-18T01:51:53.537Z,3.20
2018-06-18T01:54:20.917Z,2.40
2018-06-18T01:56:48.237Z,3.10
2018-06-18T01:59:15.588Z,2.27
2018-06-18T02:01:42.961Z,2.90
2018-06-18T02:04:10.291Z,2.63
2018-06-18T02:06:37.628Z,2.43
2018-06-18T02:09:08.111Z,2.30
2018-06-18T02:11:35.458Z,2.73
2018-06-18T02:14:05.184Z,2.90
2018-06-18T02:16:32.587Z,2.50
2018-06-18T02:18:59.891Z,3.20
2018-06-18T02:21:27.228Z,2.70
2018-06-18T02:23:54.522Z,2.50
2018-06-18T02:26:21.798Z,2.60
2018-06-18T02:28:54.905Z,2.60
2018-06-18T02:31:27.830Z,2.30
2018-06-18T02:35:04.259Z,2.53
2018-06-18T02:37:37.511Z,2.77
2018-06-18T02:41:14.346Z,2.50
2018-06-18T02:43:41.843Z,3.10
2018-06-18T02:46:09.396Z,3.17
2018-06-18T02:48:36.977Z,2.63
2018-06-18T02:51:04.617Z,3.03
2018-06-18T02:53:32.158Z,2.60
2018-06-18T02:56:00.323Z,3.30
2018-06-18T02:58:28.058Z,2.90
2018-06-18T03:00:55.580Z,2.70
2018-06-18T03:03:23.155Z,3.30
2018-06-18T03:05:50.745Z,3.07
2018-06-18T03:08:18.288Z,2.63
2018-06-18T03:10:45.827Z,2.73
2018-06-18T03:13:13.470Z,2.77
2018-06-18T03:15:41.006Z,3.00
2018-06-18T03:18:13.246Z,3.17
2018-06-18T03:20:46.424Z,3.20
2018-06-18T03:23:20.556Z,3.37
2018-06-18T03:25:53.497Z,2.70
2018-06-18T03:28:28.482Z,3.10
2018-06-18T03:30:55.758Z,3.50
2018-06-18T03:33:23.038Z,3.33
2018-06-18T03:35:50.323Z,2.63
2018-06-18T03:38:17.712Z,3.07
2018-06-18T03:40:45.055Z,3.60
2018-06-18T03:43:12.395Z,3.50
2018-06-18T03:45:39.711Z,3.10
2018-06-18T03:48:09.029Z,3.03
2018-06-18T03:50:36.327Z,2.60
2018-06-18T03:53:03.920Z,3.20
2018-06-18T03:55:50.292Z,2.70
2018-06-18T03:58:17.676Z,3.37
2018-06-18T04:00:58.619Z,3.30
2018-06-18T04:03:31.511Z,2.80
2018-06-18T04:06:04.396Z,3.53
2018-06-18T04:08:31.742Z,2.37
2018-06-18T04:11:06.031Z,2.80
2018-06-18T04:13:33.346Z,2.93
2018-06-18T04:16:00.722Z,3.20
2018-06-18T04:18:28.104Z,3.27
2018-06-18T04:20:55.634Z,3.50
2018-06-18T04:23:22.962Z,3.67
2018-06-18T04:25:50.291Z,3.67
2018-06-18T04:28:17.695Z,3.80
2018-06-18T04:30:48.265Z,3.53
2018-06-18T04:33:17.527Z,3.60
2018-06-18T04:35:44.963Z,3.80
2018-06-18T04:38:12.319Z,4.13
2018-06-18T04:40:39.654Z,3.30
2018-06-18T04:43:13.697Z,3.20
2018-06-18T04:45:45.882Z,3.90
2018-06-18T04:48:18.982Z,3.43
2018-06-18T04:50:52.050Z,3.90
2018-06-18T04:53:19.441Z,3.53
2018-06-18T04:55:46.828Z,3.77
2018-06-18T04:58:14.181Z,4.27
2018-06-18T05:00:46.735Z,4.50
2018-06-18T05:03:14.326Z,4.43
2018-06-18T05:05:42.115Z,5.00
2018-06-18T05:08:20.952Z,4.70
2018-06-18T05:10:48.478Z,4.90
2018-06-18T05:13:15.908Z,5.30
2018-06-18T05:15:44.196Z,5.20
2018-06-18T05:18:11.679Z,4.80
2018-06-18T05:20:39.216Z,5.10
2018-06-18T05:23:11.450Z,4.77
2018-06-18T05:25:39.419Z,4.93
2018-06-18T05:28:06.976Z,4.60
2018-06-18T05:30:34.526Z,4.63
2018-06-18T05:33:02.102Z,5.03
2018-06-18T05:35:29.622Z,5.20
2018-06-18T05:38:03.618Z,4.77
2018-06-18T05:40:31.213Z,4.70
2018-06-18T05:42:58.832Z,4.90
2018-06-18T05:45:29.672Z,5.47
2018-06-18T05:47:57.311Z,4.80
2018-06-18T05:50:25.061Z,5.00
2018-06-18T05:52:52.578Z,4.77
2018-06-18T05:55:21.905Z,4.87
2018-06-18T05:57:49.498Z,5.20
2018-06-18T06:00:17.590Z,5.03
2018-06-18T06:02:45.096Z,4.83
2018-06-18T06:05:12.605Z,4.87
2018-06-18T06:07:40.133Z,4.50
2018-06-18T06:10:07.762Z,5.00
2018-06-18T06:12:35.286Z,5.03
2018-06-18T06:15:02.991Z,4.90
2018-06-18T06:17:30.631Z,5.20
2018-06-18T06:19:58.391Z,4.37
2018-06-18T06:25:23.031Z,4.97
2018-06-18T06:27:50.613Z,4.97
2018-06-18T06:30:18.586Z,4.87
2018-06-18T06:32:46.141Z,3.80
2018-06-18T06:35:18.863Z,3.70
2018-06-18T06:37:46.595Z,4.33
2018-06-18T06:40:16.266Z,4.20
2018-06-18T06:42:43.809Z,4.60
2018-06-18T06:45:11.383Z,4.60
2018-06-18T06:47:39.075Z,4.53
2018-06-18T06:50:06.592Z,4.83
2018-06-18T06:52:34.142Z,4.60
2018-06-18T06:55:05.703Z,4.00
2018-06-18T06:57:33.244Z,4.07
2018-06-18T07:00:01.333Z,4.33
2018-06-18T07:02:28.859Z,4.13
2018-06-18T07:04:56.435Z,4.30
2018-06-18T07:07:24.017Z,4.50
2018-06-18T07:09:53.928Z,3.90
2018-06-18T07:12:21.487Z,3.90
2018-06-18T07:14:49.016Z,4.10
2018-06-18T07:17:16.558Z,4.10
2018-06-18T07:19:44.169Z,3.83
2018-06-18T07:22:18.386Z,3.70
2018-06-18T07:24:46.131Z,4.10
2018-06-18T07:27:13.691Z,3.27
2018-06-18T07:29:41.412Z,3.53
2018-06-18T07:32:09.052Z,4.87
2018-06-18T07:34:40.795Z,3.33
2018-06-18T07:37:09.043Z,3.53
2018-06-18T07:39:36.575Z,2.90
2018-06-18T07:42:04.134Z,3.10
2018-06-18T07:44:31.881Z,2.80
2018-06-18T07:47:03.694Z,2.57
2018-06-18T07:49:31.286Z,2.90
2018-06-18T07:51:58.931Z,3.00
2018-06-18T07:54:26.503Z,2.63
2018-06-18T07:56:54.065Z,2.90
2018-06-18T07:59:28.279Z,2.33
2018-06-18T08:01:55.870Z,2.70
2018-06-18T08:04:23.915Z,3.17
2018-06-18T08:06:51.614Z,2.90
2018-06-18T08:09:19.403Z,4.00
2018-06-18T08:11:47.057Z,2.87
2018-06-18T08:14:16.898Z,3.20
2018-06-18T08:16:44.422Z,3.87
2018-06-18T08:19:11.982Z,3.20
2018-06-18T08:21:39.547Z,2.90
2018-06-18T08:24:07.084Z,2.73
2018-06-18T08:26:34.561Z,3.40
2018-06-18T08:29:04.398Z,3.43
2018-06-18T08:31:32.500Z,2.80
2018-06-18T08:34:00.099Z,2.90
2018-06-18T08:36:27.774Z,2.50
2018-06-18T08:38:55.310Z,2.60
2018-06-18T08:41:22.879Z,2.60
2018-06-18T08:43:50.529Z,2.53
2018-06-18T08:46:18.109Z,2.77
2018-06-18T08:48:51.395Z,2.40
2018-06-18T08:51:24.723Z,2.90
2018-06-18T08:53:58.047Z,3.00
2018-06-18T08:56:31.172Z,2.97
2018-06-18T08:59:04.296Z,2.80
2018-06-18T09:01:34.083Z,3.40
2018-06-18T09:04:05.362Z,3.23
2018-06-18T09:06:33.826Z,2.80
2018-06-18T09:09:01.338Z,3.17
2018-06-18T09:11:28.694Z,3.30
2018-06-18T09:13:56.070Z,3.40
2018-06-18T09:16:23.496Z,2.63
2018-06-18T09:18:51.060Z,3.00
2018-06-18T09:21:18.443Z,2.87
2018-06-18T09:23:45.793Z,3.27
2018-06-18T09:26:13.211Z,2.70
2018-06-18T09:28:40.528Z,2.30
2018-06-18T09:31:07.943Z,2.60
2018-06-18T09:33:35.279Z,3.00
2018-06-18T09:36:02.679Z,2.23
2018-06-18T09:38:30.031Z,2.40
2018-06-18T09:40:57.408Z,2.43
2018-06-18T09:43:24.743Z,2.83
2018-06-18T09:45:52.212Z,2.50
2018-06-18T09:48:19.577Z,1.90
2018-06-18T09:50:52.739Z,2.37
2018-06-18T09:53:25.894Z,2.50
2018-06-18T09:55:59.437Z,2.80
2018-06-18T09:58:32.476Z,2.70
2018-06-18T10:01:08.807Z,3.27
2018-06-18T10:03:36.109Z,2.63
2018-06-18T10:06:04.462Z,2.37
2018-06-18T10:08:31.886Z,2.70
2018-06-18T10:10:59.306Z,2.90
2018-06-18T10:13:26.677Z,2.70
2018-06-18T10:15:54.354Z,2.80
2018-06-18T10:18:21.771Z,2.80
2018-06-18T10:20:49.230Z,3.23
2018-06-18T10:23:16.550Z,3.17
2018-06-18T10:25:43.983Z,2.60
2018-06-18T10:28:11.291Z,2.70
2018-06-18T10:30:38.665Z,2.90
2018-06-18T10:33:11.950Z,2.70
2018-06-18T10:35:44.867Z,3.10
2018-06-18T10:38:19.882Z,3.57
2018-06-18T10:40:52.970Z,3.13
2018-06-18T10:43:28.390Z,3.30
2018-06-18T10:45:55.944Z,3.20
2018-06-18T10:48:23.932Z,3.47
2018-06-18T10:50:51.542Z,3.27
2018-06-18T10:53:19.078Z,2.80
2018-06-18T10:55:46.583Z,2.90
2018-06-18T10:58:14.238Z,2.67
2018-06-18T11:00:41.829Z,2.80
2018-06-18T11:03:09.389Z,3.33
2018-06-18T11:05:42.499Z,3.60
2018-06-18T11:08:11.699Z,3.00
2018-06-18T11:10:39.913Z,2.80
2018-06-18T11:13:07.742Z,3.00
2018-06-18T11:15:35.276Z,3.20
2018-06-18T11:18:08.542Z,2.97
2018-06-18T11:20:41.834Z,2.80
2018-06-18T11:23:15.351Z,2.70
2018-06-18T11:25:48.467Z,2.53
2018-06-18T11:28:16.083Z,3.00
2018-06-18T11:30:43.709Z,2.70
2018-06-18T11:33:11.245Z,2.73
2018-06-18T11:35:38.908Z,2.87
2018-06-18T11:38:06.376Z,2.90
2018-06-18T11:40:34.054Z,2.80
2018-06-18T11:43:01.516Z,2.63
2018-06-18T11:45:29.078Z,2.70
2018-06-18T11:48:08.782Z,2.60
2018-06-18T11:50:36.345Z,2.37
2018-06-18T11:53:04.004Z,2.33
2018-06-18T11:55:31.595Z,2.80
2018-06-18T11:57:59.123Z,2.50
2018-06-18T12:00:32.441Z,2.37
2018-06-18T12:03:05.605Z,2.50
2018-06-18T12:05:38.916Z,2.70
2018-06-18T12:08:12.076Z,2.80
2018-06-18T12:10:39.678Z,3.00
2018-06-18T12:13:07.811Z,3.00
2018-06-18T12:15:37.237Z,2.70
2018-06-18T12:18:09.117Z,3.00
2018-06-18T12:20:37.914Z,2.57
2018-06-18T12:23:05.574Z,2.80
2018-06-18T12:25:33.737Z,2.40
2018-06-18T12:28:01.288Z,2.63
2018-06-18T12:30:28.870Z,2.93
2018-06-18T12:32:56.401Z,2.30
2018-06-18T12:35:24.077Z,2.30
2018-06-18T12:37:51.634Z,2.70
2018-06-18T12:40:19.330Z,2.13
2018-06-18T12:42:46.883Z,2.13
2018-06-18T12:45:22.115Z,2.20
2018-06-18T12:47:55.278Z,2.30
2018-06-18T12:50:28.551Z,2.10
2018-06-18T12:53:01.686Z,2.00
2018-06-18T12:55:34.867Z,2.27
2018-06-18T12:58:02.642Z,2.03
2018-06-18T13:00:30.184Z,2.10
2018-06-18T13:03:10.297Z,2.40
2018-06-18T13:05:38.872Z,2.03
2018-06-18T13:08:06.859Z,2.30
2018-06-18T13:10:34.531Z,2.50
2018-06-18T13:13:02.130Z,2.47
2018-06-18T13:15:29.903Z,2.60
2018-06-18T13:17:57.500Z,2.80
2018-06-18T13:20:27.506Z,2.67
2018-06-18T13:22:55.656Z,2.50
2018-06-18T13:25:23.255Z,4.73
2018-06-18T13:27:56.377Z,3.60
2018-06-18T13:30:28.557Z,4.03
2018-06-18T13:32:56.066Z,3.73
2018-06-18T13:35:23.862Z,4.30
2018-06-18T13:37:57.168Z,4.20
2018-06-18T13:40:30.508Z,4.47
2018-06-18T13:43:03.702Z,4.60
2018-06-18T13:45:37.063Z,3.90
2018-06-18T13:48:09.967Z,4.50
2018-06-18T13:50:37.490Z,4.80
2018-06-18T13:53:05.070Z,4.63
2018-06-18T13:55:32.682Z,4.10
2018-06-18T13:58:00.056Z,4.33
2018-06-18T14:00:31.057Z,4.30
2018-06-18T14:02:59.868Z,3.70
2018-06-18T14:05:27.197Z,4.27
2018-06-18T14:07:54.535Z,4.00
2018-06-18T14:10:21.888Z,3.83
2018-06-18T14:12:49.240Z,4.40
2018-06-18T14:15:21.270Z,4.30
2018-06-18T14:17:48.639Z,4.30
2018-06-18T14:20:24.342Z,4.80
2018-06-18T14:22:52.088Z,4.40
2018-06-18T14:25:24.315Z,5.33
2018-06-18T14:27:51.703Z,4.50
2018-06-18T14:30:24.772Z,4.63
2018-06-18T14:32:57.711Z,4.73
2018-06-18T14:35:34.868Z,4.73
2018-06-18T14:38:08.262Z,4.17
2018-06-18T14:40:35.577Z,4.90
2018-06-18T14:43:03.021Z,5.33
2018-06-18T14:45:33.893Z,4.63
2018-06-18T14:48:01.487Z,4.60
2018-06-18T14:50:28.906Z,5.90
2018-06-18T14:52:56.277Z,4.33
2018-06-18T14:55:23.751Z,5.07
2018-06-18T14:57:51.148Z,5.40
2018-06-18T15:00:27.951Z,5.13
2018-06-18T15:02:55.406Z,4.47
2018-06-18T15:05:24.369Z,4.47
2018-06-18T15:07:51.768Z,4.67
2018-06-18T15:10:19.360Z,4.00
2018-06-18T15:12:51.389Z,4.37
2018-06-18T15:15:24.438Z,3.80
2018-06-18T15:17:52.010Z,4.77
2018-06-18T15:20:20.227Z,4.00
2018-06-18T15:22:59.024Z,4.50
2018-06-18T15:25:29.986Z,4.40
2018-06-18T15:27:57.543Z,4.10
2018-06-18T15:30:25.089Z,5.10
2018-06-18T15:32:57.421Z,4.70
2018-06-18T15:35:25.005Z,4.07
2018-06-18T15:37:52.703Z,4.43
2018-06-18T15:40:20.477Z,3.93
2018-06-18T15:42:48.342Z,4.30
2018-06-18T15:45:15.874Z,4.00
2018-06-18T15:47:43.471Z,3.90
2018-06-18T15:50:11.046Z,3.40
2018-06-18T15:52:38.715Z,3.70
2018-06-18T15:55:06.386Z,3.23
2018-06-18T15:57:33.949Z,3.80
2018-06-18T16:00:01.526Z,3.43
2018-06-18T16:02:29.305Z,3.60
2018-06-18T16:04:56.766Z,3.80
2018-06-18T16:07:24.327Z,3.77
2018-06-18T16:09:52.148Z,3.00
2018-06-18T16:12:19.710Z,2.90
2018-06-18T16:14:47.281Z,2.93
2018-06-18T16:17:14.847Z,3.00
2018-06-18T16:19:42.490Z,3.00
2018-06-18T16:22:10.158Z,3.07
2018-06-18T16:24:37.711Z,2.90
2018-06-18T16:27:05.574Z,2.90
2018-06-18T16:29:33.154Z,2.43
2018-06-18T16:32:00.682Z,2.70
2018-06-18T16:34:28.017Z,2.80
2018-06-18T16:36:55.610Z,2.50
2018-06-18T16:39:23.194Z,2.77
2018-06-18T16:41:50.601Z,2.97
2018-06-18T16:44:17.974Z,2.33
2018-06-18T16:46:45.566Z,2.40
2018-06-18T16:49:13.009Z,2.67
2018-06-18T16:51:40.357Z,2.47
2018-06-18T16:54:07.938Z,3.00
2018-06-18T16:56:35.418Z,3.43
2018-06-18T16:59:02.855Z,2.73
2018-06-18T17:01:30.543Z,3.10
2018-06-18T17:03:57.943Z,3.13
2018-06-18T17:06:25.375Z,2.97
2018-06-18T17:08:52.858Z,3.13
2018-06-18T17:11:20.512Z,3.73
2018-06-18T17:13:47.918Z,3.30
2018-06-18T17:16:15.262Z,2.93
2018-06-18T17:18:42.600Z,2.67
2018-06-18T17:21:09.988Z,3.23
2018-06-18T17:23:37.512Z,3.40
2018-06-18T17:26:05.193Z,3.20
2018-06-18T17:28:32.505Z,2.90
2018-06-18T17:31:00.055Z,2.80
2018-06-18T17:33:27.595Z,3.57
2018-06-18T17:35:54.915Z,3.20
2018-06-18T17:38:22.554Z,3.20
2018-06-18T17:40:49.887Z,3.40
2018-06-18T17:43:17.479Z,3.80
2018-06-18T17:45:45.023Z,3.20
2018-06-18T17:48:12.540Z,3.57
2018-06-18T17:50:39.823Z,3.20
2018-06-18T17:53:07.451Z,2.97
2018-06-18T17:55:35.122Z,2.90
2018-06-18T17:58:02.497Z,2.63
2018-06-18T18:00:29.862Z,3.13
2018-06-18T18:02:57.226Z,3.47
2018-06-18T18:05:24.790Z,3.87
2018-06-18T18:07:52.538Z,3.23
2018-06-18T18:10:19.979Z,2.73
2018-06-18T18:12:47.358Z,3.13
2018-06-18T18:15:14.726Z,3.07
2018-06-18T18:17:42.079Z,2.93
2018-06-18T18:20:09.632Z,2.53
2018-06-18T18:22:37.208Z,2.63
2018-06-18T18:25:04.911Z,2.00
2018-06-18T18:27:32.354Z,2.00
2018-06-18T18:30:01.351Z,2.20
2018-06-18T18:32:28.901Z,2.50
2018-06-18T18:34:56.647Z,2.20
2018-06-18T18:37:24.151Z,2.10
2018-06-18T18:39:52.141Z,2.13
2018-06-18T18:42:19.749Z,2.40
2018-06-18T18:44:49.161Z,2.00
2018-06-18T18:47:16.759Z,2.10
2018-06-18T18:49:44.208Z,1.90
2018-06-18T18:52:11.735Z,1.80
2018-06-18T18:55:52.505Z,2.07
2018-06-18T18:58:48.142Z,1.87
2018-06-18T19:01:15.951Z,1.90
2018-06-18T19:03:49.597Z,2.37
2018-06-18T19:06:17.042Z,2.00
2018-06-18T19:08:44.447Z,2.40
2018-06-18T19:11:11.786Z,2.37
2018-06-18T19:13:39.163Z,3.23
2018-06-18T19:16:11.648Z,2.40
2018-06-18T19:18:41.897Z,2.60
2018-06-18T19:21:09.916Z,3.10
2018-06-18T19:23:37.443Z,2.73
2018-06-18T19:26:05.026Z,2.73
2018-06-18T19:28:36.654Z,2.83
2018-06-18T19:31:07.371Z,2.80
2018-06-18T19:34:09.412Z,2.73
2018-06-18T19:36:38.708Z,2.57
2018-06-18T19:39:07.879Z,2.97
2018-06-18T19:41:40.607Z,2.90
2018-06-18T19:44:08.294Z,2.90
2018-06-18T19:46:40.645Z,2.90
2018-06-18T19:49:09.869Z,2.43
2018-06-18T19:51:37.458Z,2.80
2018-06-18T19:54:08.904Z,3.00
2018-06-18T19:56:36.388Z,2.67
2018-06-18T19:59:03.743Z,3.03
2018-06-18T20:01:31.295Z,3.23
2018-06-18T20:03:58.672Z,3.23
2018-06-18T20:06:32.053Z,3.30
2018-06-18T20:08:59.424Z,3.17
2018-06-18T20:11:26.790Z,2.73
2018-06-18T20:13:54.186Z,3.43
2018-06-18T20:16:21.562Z,3.03
2018-06-18T20:18:49.004Z,3.23
2018-06-18T20:21:18.705Z,3.27
2018-06-18T20:23:46.297Z,3.10
2018-06-18T20:26:15.306Z,3.20
2018-06-18T20:28:42.684Z,3.00
2018-06-18T20:31:10.022Z,3.30
2018-06-18T20:33:45.706Z,3.47
2018-06-18T20:36:15.098Z,4.07
2018-06-18T20:38:42.459Z,4.00
2018-06-18T20:41:09.958Z,4.17
2018-06-18T20:43:48.216Z,4.40
2018-06-18T20:46:15.820Z,4.33
2018-06-18T20:48:43.986Z,4.50
2018-06-18T20:51:11.339Z,3.73
2018-06-18T20:53:38.671Z,4.77
2018-06-18T20:56:06.164Z,4.60
2018-06-18T20:58:33.558Z,4.43
2018-06-18T21:01:00.906Z,4.53
2018-06-18T21:03:28.259Z,3.97
2018-06-18T21:05:55.690Z,4.53
2018-06-18T21:08:23.100Z,4.17
2018-06-18T21:10:50.518Z,3.60
2018-06-18T21:13:17.926Z,3.73
2018-06-18T21:15:45.328Z,3.83
2018-06-18T21:18:12.879Z,3.60
2018-06-18T21:20:40.521Z,3.93
2018-06-18T21:23:08.042Z,3.60
2018-06-18T21:25:35.478Z,3.63
2018-06-18T21:28:02.868Z,3.50
2018-06-18T21:30:30.206Z,3.20
2018-06-18T21:33:00.954Z,3.57
2018-06-18T21:35:28.304Z,3.40
2018-06-18T21:37:55.638Z,3.57
2018-06-18T21:40:22.993Z,3.50
2018-06-18T21:42:50.311Z,3.30
2018-06-18T21:45:20.692Z,2.93
2018-06-18T21:47:48.585Z,3.33
2018-06-18T21:50:16.351Z,3.17
2018-06-18T21:52:44.175Z,3.30
2018-06-18T21:55:11.559Z,2.87
2018-06-18T21:57:40.666Z,3.53
2018-06-18T22:00:19.284Z,3.37
2018-06-18T22:02:47.038Z,3.00
2018-06-18T22:05:14.388Z,3.20
2018-06-18T22:07:43.238Z,3.20
2018-06-18T22:10:10.761Z,3.20
2018-06-18T22:12:38.414Z,2.90
2018-06-18T22:15:06.660Z,3.13
2018-06-18T22:17:34.071Z,3.00
2018-06-18T22:20:01.427Z,3.20
2018-06-18T22:22:28.768Z,3.13
2018-06-18T22:24:56.122Z,3.50
2018-06-18T22:27:23.537Z,2.90
2018-06-18T22:29:50.880Z,2.90
2018-06-18T22:32:18.446Z,2.90
2018-06-18T22:34:45.812Z,3.40
2018-06-18T22:37:13.212Z,3.20
2018-06-18T22:39:40.551Z,3.30
2018-06-18T22:42:07.926Z,3.50
2018-06-18T22:44:35.265Z,3.17
2018-06-18T22:47:02.698Z,3.20
2018-06-18T22:49:30.118Z,2.97
2018-06-18T22:51:57.490Z,3.03
2018-06-18T22:54:24.949Z,3.20
2018-06-18T22:56:52.478Z,2.80
2018-06-18T22:59:19.852Z,3.30
2018-06-18T23:01:47.271Z,3.17
2018-06-18T23:04:14.648Z,2.90
2018-06-18T23:06:42.048Z,2.60
2018-06-18T23:09:10.984Z,3.17
2018-06-18T23:11:38.456Z,3.43
2018-06-18T23:14:08.306Z,3.27
2018-06-18T23:16:35.846Z,2.87
2018-06-18T23:19:03.498Z,3.17
2018-06-18T23:21:30.947Z,2.80
2018-06-18T23:23:58.390Z,3.07
2018-06-18T23:26:25.921Z,2.90
2018-06-18T23:28:55.929Z,3.10
2018-06-18T23:31:23.531Z,3.30
2018-06-18T23:33:51.574Z,3.30
2018-06-18T23:36:19.754Z,2.87
2018-06-18T23:38:47.154Z,3.10
2018-06-18T23:41:14.734Z,3.23
2018-06-18T23:43:42.226Z,3.03
2018-06-18T23:46:09.848Z,3.17
2018-06-18T23:48:38.909Z,2.80
2018-06-18T23:51:06.344Z,2.87
2018-06-18T23:53:33.686Z,2.47
2018-06-18T23:56:01.015Z,2.97
2018-06-18T23:58:29.031Z,2.50
